Time;durP1;ratioP1;P1;durP2;ratioP2;P2;SDS_P1;SDS_P2;PMS_P1;PMS_P2;Temp;Humidity;BMP_temperature;BMP_pressure;BME280_temperature;BME280_humidity;BME280_pressure;Samples;Min_cycle;Max_cycle;Signal;HPM_P1;HPM_P2
2022/12/09 00:03:16;;;;;;;;;52.25;42.00;;;;;;;;6489739;39;8981;-57
2022/12/09 00:09:25;;;;;;;;;56.00;44.25;;;;;;;;6489405;39;8876;-59
2022/12/09 00:15:27;;;;;;;;;53.75;46.00;;;;;;;;6489313;31;8890;-59
2022/12/09 00:21:31;;;;;;;;;52.50;44.75;;;;;;;;6489534;39;8847;-60
2022/12/09 00:27:33;;;;;;;;;51.75;42.00;;;;;;;;6489629;39;9639;-58
2022/12/09 00:33:35;;;;;;;;;52.25;43.75;;;;;;;;6490973;31;8852;-59
2022/12/09 00:39:38;;;;;;;;;57.75;46.00;;;;;;;;6489297;31;8839;-59
2022/12/09 00:45:41;;;;;;;;;42.50;39.25;;;;;;;;6488808;46;9080;-59
2022/12/09 00:51:44;;;;;;;;;56.25;42.75;;;;;;;;6489691;39;9479;-59
2022/12/09 00:57:47;;;;;;;;;44.75;41.00;;;;;;;;6488290;31;8863;-59
2022/12/09 01:03:49;;;;;;;;;51.50;44.75;;;;;;;;6489157;39;9041;-59
2022/12/09 01:09:52;;;;;;;;;49.00;42.00;;;;;;;;6488997;31;8952;-60
2022/12/09 01:15:55;;;;;;;;;20.50;20.50;;;;;;;;6488834;39;8921;-59
2022/12/09 01:21:57;;;;;;;;;43.00;35.25;;;;;;;;6489806;39;8855;-58
2022/12/09 01:28:00;;;;;;;;;53.75;40.50;;;;;;;;6488571;39;8862;-59
2022/12/09 01:34:02;;;;;;;;;37.75;29.00;;;;;;;;6490104;31;8824;-60
2022/12/09 01:40:09;;;;;;;;;44.75;41.00;;;;;;;;6488756;46;8843;-58
2022/12/09 01:46:14;;;;;;;;;43.25;27.25;;;;;;;;6487406;39;9548;-59
2022/12/09 01:52:22;;;;;;;;;45.75;39.00;;;;;;;;6489943;31;9561;-59
2022/12/09 01:58:25;;;;;;;;;48.00;36.25;;;;;;;;6488444;47;8847;-58
2022/12/09 02:04:31;;;;;;;;;39.75;38.25;;;;;;;;6488530;39;8937;-58
2022/12/09 02:10:41;;;;;;;;;55.00;39.50;;;;;;;;6488397;39;8872;-58
2022/12/09 02:17:12;;;;;;;;;49.00;42.00;;;;;;;;6489170;46;8874;-59
2022/12/09 02:23:24;;;;;;;;;37.75;35.75;;;;;;;;6490249;46;8987;-59
2022/12/09 02:29:56;;;;;;;;;45.00;40.00;;;;;;;;6489519;39;8957;-57
2022/12/09 02:36:08;;;;;;;;;43.50;38.25;;;;;;;;6490447;46;8880;-59
2022/12/09 02:42:19;;;;;;;;;48.00;41.25;;;;;;;;6490082;39;9065;-60
2022/12/09 02:48:32;;;;;;;;;42.75;35.75;;;;;;;;6490286;31;8876;-58
2022/12/09 02:54:37;;;;;;;;;41.00;34.25;;;;;;;;6490546;31;8897;-59
2022/12/09 03:00:41;;;;;;;;;47.25;38.25;;;;;;;;6490997;46;8836;-57
2022/12/09 03:06:51;;;;;;;;;49.50;40.50;;;;;;;;6490640;39;8954;-58
2022/12/09 03:13:02;;;;;;;;;46.00;38.50;;;;;;;;6489849;31;8880;-59
2022/12/09 03:19:11;;;;;;;;;45.50;42.25;;;;;;;;6490479;46;8869;-59
2022/12/09 03:25:23;;;;;;;;;34.50;30.25;;;;;;;;6489536;39;8919;-59
2022/12/09 03:31:30;;;;;;;;;28.00;27.00;;;;;;;;6489758;46;8858;-59
2022/12/09 03:37:37;;;;;;;;;49.00;41.50;;;;;;;;6490286;39;8887;-59
2022/12/09 03:43:46;;;;;;;;;34.50;31.25;;;;;;;;6490756;39;9435;-60
2022/12/09 03:49:49;;;;;;;;;36.00;35.50;;;;;;;;6489897;31;8999;-59
2022/12/09 03:56:07;;;;;;;;;51.25;41.25;;;;;;;;6490212;39;8941;-60
2022/12/09 04:02:11;;;;;;;;;34.75;29.75;;;;;;;;6398740;46;5002041;-59
2022/12/09 04:08:13;;;;;;;;;36.25;33.50;;;;;;;;6490205;31;8847;-59
2022/12/09 04:14:16;;;;;;;;;39.25;34.75;;;;;;;;6490298;46;8868;-60
2022/12/09 04:20:19;;;;;;;;;45.25;41.75;;;;;;;;6489353;39;8863;-59
2022/12/09 04:26:23;;;;;;;;;43.75;40.50;;;;;;;;6490173;39;9558;-60
2022/12/09 04:32:25;;;;;;;;;40.75;34.00;;;;;;;;6489348;39;8897;-60
2022/12/09 04:38:27;;;;;;;;;39.50;33.00;;;;;;;;6489224;39;8963;-60
2022/12/09 04:44:30;;;;;;;;;38.75;29.00;;;;;;;;6490745;31;9555;-60
2022/12/09 04:50:34;;;;;;;;;44.50;39.75;;;;;;;;6488544;31;8871;-59
2022/12/09 04:56:36;;;;;;;;;51.25;34.50;;;;;;;;6489210;39;8905;-59
2022/12/09 05:02:38;;;;;;;;;24.75;22.50;;;;;;;;6471810;39;8992;-59
2022/12/09 05:08:41;;;;;;;;;39.25;33.75;;;;;;;;6489688;31;8951;-59
2022/12/09 05:14:44;;;;;;;;;45.50;40.50;;;;;;;;6489887;31;8934;-59
2022/12/09 05:20:46;;;;;;;;;41.25;36.00;;;;;;;;6491336;31;8906;-60
2022/12/09 05:26:51;;;;;;;;;29.00;28.25;;;;;;;;6489338;39;8886;-58
2022/12/09 05:32:54;;;;;;;;;42.00;33.33;;;;;;;;6487227;39;8870;-59
2022/12/09 05:38:56;;;;;;;;;46.25;39.50;;;;;;;;6489524;31;8910;-60
2022/12/09 05:45:01;;;;;;;;;42.50;35.25;;;;;;;;6489535;31;9066;-60
2022/12/09 05:51:16;;;;;;;;;47.50;40.75;;;;;;;;6490383;39;8897;-59
2022/12/09 05:57:19;;;;;;;;;47.00;40.75;;;;;;;;6489646;31;8838;-59
2022/12/09 06:03:23;;;;;;;;;41.25;37.25;;;;;;;;6490529;39;9620;-59
2022/12/09 06:09:26;;;;;;;;;50.00;39.50;;;;;;;;6489154;47;8916;-59
2022/12/09 06:15:28;;;;;;;;;47.75;39.00;;;;;;;;6488825;39;8888;-59
2022/12/09 06:21:38;;;;;;;;;42.50;38.75;;;;;;;;6490160;39;8868;-58
2022/12/09 06:27:41;;;;;;;;;45.50;38.50;;;;;;;;6488739;39;8872;-60
2022/12/09 06:33:43;;;;;;;;;48.00;38.00;;;;;;;;6490045;31;8851;-59
2022/12/09 06:39:56;;;;;;;;;40.50;32.00;;;;;;;;6489414;47;8895;-59
2022/12/09 06:46:00;;;;;;;;;36.25;31.75;;;;;;;;6489404;39;8922;-60
2022/12/09 06:52:03;;;;;;;;;44.50;38.50;;;;;;;;6489545;39;8850;-60
2022/12/09 06:58:06;;;;;;;;;45.25;37.25;;;;;;;;6487949;39;8943;-59
2022/12/09 07:04:12;;;;;;;;;38.50;38.00;;;;;;;;6490407;31;9002;-59
2022/12/09 07:10:16;;;;;;;;;44.25;33.50;;;;;;;;6490477;31;8938;-60
2022/12/09 07:16:19;;;;;;;;;55.00;43.25;;;;;;;;6490967;39;8859;-59
2022/12/09 07:22:22;;;;;;;;;41.25;40.25;;;;;;;;6491592;39;8859;-59
2022/12/09 07:28:25;;;;;;;;;43.75;36.00;;;;;;;;6490551;39;8918;-60
2022/12/09 07:34:28;;;;;;;;;40.25;33.25;;;;;;;;6491421;39;8923;-59
2022/12/09 07:40:31;;;;;;;;;47.25;42.75;;;;;;;;6489029;31;9014;-59
2022/12/09 07:46:35;;;;;;;;;41.75;39.25;;;;;;;;6489531;31;8952;-61
2022/12/09 07:52:38;;;;;;;;;50.00;38.75;;;;;;;;6489325;46;9058;-61
2022/12/09 07:58:42;;;;;;;;;51.50;45.25;;;;;;;;6489834;46;8947;-60
2022/12/09 08:04:44;;;;;;;;;52.50;42.25;;;;;;;;6488922;39;8959;-59
2022/12/09 08:10:48;;;;;;;;;46.50;41.25;;;;;;;;6488209;46;8946;-59
2022/12/09 08:16:51;;;;;;;;;56.75;45.00;;;;;;;;6488971;46;8846;-59
2022/12/09 08:22:56;;;;;;;;;40.75;40.75;;;;;;;;6489380;31;9238;-60
2022/12/09 08:28:59;;;;;;;;;45.25;40.00;;;;;;;;6488917;39;8925;-63
2022/12/09 08:35:05;;;;;;;;;61.75;51.00;;;;;;;;6490548;39;8926;-59
2022/12/09 08:41:33;;;;;;;;;67.25;54.50;;;;;;;;6489986;39;9013;-59
2022/12/09 08:47:36;;;;;;;;;50.75;45.75;;;;;;;;6489163;39;9467;-59
2022/12/09 08:53:40;;;;;;;;;55.25;44.25;;;;;;;;6489276;39;8900;-59
2022/12/09 08:59:44;;;;;;;;;44.00;38.25;;;;;;;;6490219;39;8864;-59
2022/12/09 09:05:59;;;;;;;;;62.50;46.50;;;;;;;;6490115;36;9011;-59
2022/12/09 09:12:12;;;;;;;;;44.00;41.50;;;;;;;;6488626;46;8881;-59
2022/12/09 09:18:22;;;;;;;;;41.50;36.75;;;;;;;;6489598;46;8877;-61
2022/12/09 09:24:25;;;;;;;;;48.00;39.25;;;;;;;;6487906;31;8919;-61
2022/12/09 10:32:58;;;;;;;;;52.00;42.50;;;;;;;;6487372;47;9089;-61
2022/12/09 10:39:04;;;;;;;;;61.75;46.25;;;;;;;;6486058;39;8916;-59
2022/12/09 10:45:08;;;;;;;;;61.25;47.25;;;;;;;;6489807;39;8914;-58
2022/12/09 10:51:19;;;;;;;;;58.50;45.00;;;;;;;;6487907;31;8903;-58
2022/12/09 10:57:25;;;;;;;;;47.75;40.75;;;;;;;;6488012;39;9047;-60
2022/12/09 11:03:30;;;;;;;;;62.00;49.00;;;;;;;;6489585;46;8973;-60
2022/12/09 11:09:35;;;;;;;;;42.75;40.25;;;;;;;;6488096;39;9075;-60
2022/12/09 11:15:44;;;;;;;;;52.00;45.25;;;;;;;;6487708;31;9052;-59
2022/12/09 11:21:47;;;;;;;;;47.25;43.25;;;;;;;;6487609;31;8997;-61
2022/12/09 11:28:19;;;;;;;;;63.50;49.75;;;;;;;;6489278;31;9018;-60
2022/12/09 11:34:26;;;;;;;;;66.00;51.25;;;;;;;;6486857;39;8961;-59
2022/12/09 11:40:33;;;;;;;;;48.50;41.50;;;;;;;;6489356;31;9040;-60
2022/12/09 11:46:36;;;;;;;;;61.75;51.50;;;;;;;;6489052;39;9021;-59
2022/12/09 11:52:42;;;;;;;;;55.25;44.50;;;;;;;;6486962;31;8987;-60
2022/12/09 11:58:49;;;;;;;;;60.25;48.50;;;;;;;;6488429;31;8955;-59
2022/12/09 12:05:00;;;;;;;;;65.00;53.00;;;;;;;;6487647;46;9008;-60
2022/12/09 12:11:07;;;;;;;;;67.33;46.00;;;;;;;;6487291;31;9705;-60
2022/12/09 12:17:24;;;;;;;;;67.25;52.25;;;;;;;;6487085;39;8957;-59
2022/12/09 12:23:43;;;;;;;;;81.75;62.50;;;;;;;;6485688;39;9091;-60
2022/12/09 12:30:07;;;;;;;;;66.00;52.25;;;;;;;;6486691;31;8982;-60
2022/12/09 12:36:10;;;;;;;;;69.75;55.50;;;;;;;;6486348;39;9101;-59
2022/12/09 12:42:31;;;;;;;;;70.00;54.33;;;;;;;;6486379;46;9016;-59
2022/12/09 12:49:07;;;;;;;;;72.75;57.75;;;;;;;;6484953;46;8971;-60
2022/12/09 12:55:16;;;;;;;;;65.50;53.00;;;;;;;;6485259;31;8977;-58
2022/12/09 13:01:37;;;;;;;;;71.25;54.00;;;;;;;;6484835;39;8961;-59
2022/12/09 13:07:57;;;;;;;;;74.25;57.50;;;;;;;;6486525;39;8998;-59
2022/12/09 13:14:09;;;;;;;;;67.00;54.25;;;;;;;;6486205;31;9083;-59
2022/12/09 13:20:48;;;;;;;;;67.75;54.50;;;;;;;;6485450;31;8962;-61
2022/12/09 13:26:57;;;;;;;;;64.50;52.00;;;;;;;;6484858;46;9051;-59
2022/12/09 13:33:21;;;;;;;;;66.25;53.00;;;;;;;;6486226;39;8970;-60
2022/12/09 13:39:38;;;;;;;;;68.75;55.00;;;;;;;;6484800;39;9028;-59
2022/12/09 13:45:49;;;;;;;;;63.00;51.00;;;;;;;;6485341;39;9151;-59
2022/12/09 13:51:54;;;;;;;;;69.75;54.25;;;;;;;;6482523;39;9013;-61
2022/12/09 13:58:14;;;;;;;;;66.75;54.50;;;;;;;;6483732;39;9879;-62
2022/12/09 14:04:23;;;;;;;;;59.75;51.50;;;;;;;;6485142;46;8997;-61
2022/12/09 14:10:44;;;;;;;;;66.25;53.75;;;;;;;;6485802;31;8950;-61
2022/12/09 14:16:46;;;;;;;;;68.75;56.00;;;;;;;;6489986;39;9012;-61
2022/12/09 14:23:03;;;;;;;;;71.50;53.75;;;;;;;;6488258;39;10152;-60
2022/12/09 14:29:06;;;;;;;;;62.25;50.75;;;;;;;;6507103;36;9014;-60
2022/12/09 14:35:12;;;;;;;;;67.50;52.50;;;;;;;;6487979;39;8966;-59
2022/12/09 14:41:29;;;;;;;;;69.75;51.50;;;;;;;;6487273;39;9044;-59
2022/12/09 14:47:38;;;;;;;;;80.50;58.25;;;;;;;;6490610;39;8950;-60
2022/12/09 14:53:41;;;;;;;;;81.00;62.50;;;;;;;;6492132;39;9072;-59
2022/12/09 14:59:52;;;;;;;;;81.50;60.75;;;;;;;;6491815;46;9064;-59
2022/12/09 15:06:01;;;;;;;;;86.25;66.00;;;;;;;;6492268;46;8997;-60
2022/12/09 15:12:10;;;;;;;;;80.75;64.25;;;;;;;;6491971;46;8954;-60
2022/12/09 15:18:24;;;;;;;;;85.50;66.00;;;;;;;;6493285;39;8922;-61
2022/12/09 15:24:28;;;;;;;;;86.75;67.00;;;;;;;;6490844;39;9089;-61
2022/12/09 15:31:01;;;;;;;;;85.50;66.25;;;;;;;;6490886;39;9063;-60
2022/12/09 15:37:05;;;;;;;;;86.50;67.00;;;;;;;;6489966;31;8927;-60
2022/12/09 15:43:10;;;;;;;;;88.75;67.00;;;;;;;;6489908;39;8989;-61
2022/12/09 15:49:19;;;;;;;;;86.75;66.25;;;;;;;;6489891;39;9176;-60
2022/12/09 15:55:35;;;;;;;;;89.00;69.00;;;;;;;;6489131;31;9163;-61
2022/12/09 16:01:37;;;;;;;;;82.00;62.75;;;;;;;;6489331;46;8974;-61
2022/12/09 16:07:55;;;;;;;;;97.75;75.00;;;;;;;;6488553;39;9044;-60
2022/12/09 16:14:00;;;;;;;;;99.25;75.50;;;;;;;;6489053;46;9301;-59
2022/12/09 16:20:35;;;;;;;;;94.25;72.75;;;;;;;;6491273;39;9004;-61
2022/12/09 16:26:45;;;;;;;;;103.25;86.25;;;;;;;;6488778;31;9025;-60
2022/12/09 16:32:53;;;;;;;;;101.00;80.50;;;;;;;;6489324;39;8957;-60
2022/12/09 16:39:08;;;;;;;;;94.00;73.50;;;;;;;;6488124;39;9008;-58
2022/12/09 16:45:28;;;;;;;;;92.25;71.50;;;;;;;;6488982;39;8961;-59
2022/12/09 16:51:32;;;;;;;;;83.75;63.75;;;;;;;;6489576;31;9604;-59
2022/12/09 16:57:36;;;;;;;;;81.00;63.00;;;;;;;;6489785;31;8874;-59
2022/12/09 17:04:03;;;;;;;;;83.75;65.50;;;;;;;;6488952;46;8925;-61
2022/12/09 17:10:07;;;;;;;;;88.25;67.00;;;;;;;;6489368;39;8956;-60
2022/12/09 17:16:09;;;;;;;;;89.50;67.50;;;;;;;;6489582;39;8887;-60
2022/12/09 17:22:12;;;;;;;;;90.75;66.50;;;;;;;;6488105;46;8857;-58
2022/12/09 17:28:16;;;;;;;;;89.25;69.00;;;;;;;;6488933;39;10444;-59
2022/12/09 17:34:18;;;;;;;;;88.75;68.75;;;;;;;;6488663;39;8885;-60
2022/12/09 17:40:21;;;;;;;;;90.00;66.00;;;;;;;;6488491;46;8838;-59
2022/12/09 17:46:23;;;;;;;;;83.00;64.50;;;;;;;;6488595;39;8949;-59
2022/12/09 17:52:25;;;;;;;;;91.00;69.25;;;;;;;;6488394;46;8885;-59
2022/12/09 17:58:27;;;;;;;;;89.00;67.50;;;;;;;;6487783;39;8873;-59
2022/12/09 18:04:30;;;;;;;;;86.75;67.25;;;;;;;;6488681;31;9498;-60
2022/12/09 18:10:33;;;;;;;;;81.00;61.50;;;;;;;;6488700;31;9616;-59
2022/12/09 18:16:37;;;;;;;;;87.75;66.50;;;;;;;;6487651;39;8913;-58
2022/12/09 18:22:41;;;;;;;;;94.25;70.25;;;;;;;;6488437;39;8877;-58
2022/12/09 18:28:45;;;;;;;;;97.50;73.25;;;;;;;;6487830;31;8949;-59
2022/12/09 18:34:48;;;;;;;;;95.75;70.75;;;;;;;;6489308;47;8869;-60
2022/12/09 18:41:02;;;;;;;;;96.75;76.25;;;;;;;;6489252;31;8896;-60
2022/12/09 18:47:04;;;;;;;;;91.75;71.00;;;;;;;;6487634;47;8906;-58
2022/12/09 18:53:07;;;;;;;;;88.75;70.75;;;;;;;;6488076;47;8885;-62
2022/12/09 18:59:15;;;;;;;;;94.00;70.00;;;;;;;;6488103;46;8869;-58
2022/12/09 19:05:17;;;;;;;;;84.25;64.50;;;;;;;;6490398;31;8920;-58
2022/12/09 19:11:21;;;;;;;;;81.25;62.75;;;;;;;;6489081;39;8885;-60
2022/12/09 19:17:24;;;;;;;;;76.00;59.25;;;;;;;;6490579;31;8869;-58
2022/12/09 19:23:26;;;;;;;;;76.50;58.25;;;;;;;;6490273;39;8908;-59
2022/12/09 19:29:28;;;;;;;;;68.75;52.00;;;;;;;;6489367;46;8969;-61
2022/12/09 19:35:31;;;;;;;;;49.25;38.25;;;;;;;;6489361;46;8874;-58
2022/12/09 19:41:35;;;;;;;;;72.50;56.00;;;;;;;;6489506;31;8892;-60
2022/12/09 19:47:38;;;;;;;;;58.00;46.50;;;;;;;;6488892;31;8917;-59
2022/12/09 19:53:42;;;;;;;;;53.00;45.25;;;;;;;;6489498;39;8862;-60
2022/12/09 19:59:46;;;;;;;;;48.75;42.50;;;;;;;;6489656;31;8873;-59
2022/12/09 20:05:51;;;;;;;;;54.50;44.50;;;;;;;;6489826;39;8936;-59
2022/12/09 20:11:54;;;;;;;;;47.50;44.75;;;;;;;;6489388;39;8870;-60
2022/12/09 20:17:57;;;;;;;;;38.00;34.25;;;;;;;;6489701;39;9602;-59
2022/12/09 20:24:01;;;;;;;;;43.00;40.25;;;;;;;;6489920;31;8936;-60
2022/12/09 20:30:04;;;;;;;;;46.50;41.25;;;;;;;;6489252;39;8965;-59
2022/12/09 20:36:15;;;;;;;;;61.25;46.25;;;;;;;;6489621;39;8877;-59
2022/12/09 20:42:19;;;;;;;;;62.00;46.00;;;;;;;;6489041;39;8985;-59
2022/12/09 20:48:22;;;;;;;;;50.00;42.00;;;;;;;;6489844;39;8938;-59
2022/12/09 20:54:24;;;;;;;;;52.00;44.75;;;;;;;;6488732;39;8870;-57
2022/12/09 21:00:28;;;;;;;;;56.50;46.00;;;;;;;;6487465;39;9004;-60
2022/12/09 21:06:34;;;;;;;;;61.25;49.50;;;;;;;;6488674;31;8937;-59
2022/12/09 21:12:37;;;;;;;;;63.75;47.50;;;;;;;;6489539;39;9470;-59
2022/12/09 21:18:42;;;;;;;;;55.25;44.00;;;;;;;;6488887;46;8904;-59
2022/12/09 21:24:46;;;;;;;;;45.75;42.75;;;;;;;;6488405;46;8861;-60
2022/12/09 21:30:48;;;;;;;;;50.25;43.25;;;;;;;;6489423;31;9059;-59
2022/12/09 21:36:51;;;;;;;;;40.50;37.00;;;;;;;;6488196;46;8912;-61
2022/12/09 21:42:56;;;;;;;;;44.00;38.75;;;;;;;;6488821;39;8872;-59
2022/12/09 21:49:01;;;;;;;;;50.00;41.25;;;;;;;;6488144;39;8951;-59
2022/12/09 21:55:07;;;;;;;;;37.75;36.50;;;;;;;;6489025;31;8866;-59
2022/12/09 22:01:15;;;;;;;;;45.50;41.50;;;;;;;;6488185;39;8857;-59
2022/12/09 22:07:19;;;;;;;;;54.00;45.75;;;;;;;;6488404;39;9120;-60
2022/12/09 22:13:21;;;;;;;;;53.75;46.75;;;;;;;;6487988;47;8846;-59
2022/12/09 22:19:25;;;;;;;;;51.50;44.00;;;;;;;;6487746;39;8920;-59
2022/12/09 22:25:27;;;;;;;;;50.50;42.50;;;;;;;;6487954;46;8913;-59
2022/12/09 22:31:34;;;;;;;;;60.00;49.50;;;;;;;;6487746;39;9008;-58
2022/12/09 22:37:36;;;;;;;;;61.50;49.00;;;;;;;;6489957;46;8881;-60
2022/12/09 22:43:50;;;;;;;;;34.50;34.50;;;;;;;;6490540;31;8849;-61
2022/12/09 22:49:55;;;;;;;;;53.50;41.00;;;;;;;;6489881;39;8932;-58
2022/12/09 22:55:57;;;;;;;;;56.75;48.75;;;;;;;;6490324;39;8881;-58
2022/12/09 23:02:01;;;;;;;;;48.50;42.25;;;;;;;;6489549;39;8877;-58
2022/12/09 23:08:07;;;;;;;;;49.25;44.25;;;;;;;;6490588;31;8873;-59
2022/12/09 23:14:11;;;;;;;;;50.25;42.00;;;;;;;;6489458;39;8877;-59
2022/12/09 23:20:16;;;;;;;;;50.25;42.00;;;;;;;;6491798;39;8841;-59
2022/12/09 23:26:20;;;;;;;;;60.25;49.25;;;;;;;;6489585;46;8984;-59
2022/12/09 23:32:25;;;;;;;;;57.50;47.25;;;;;;;;6490116;39;9768;-59
2022/12/09 23:38:28;;;;;;;;;61.75;47.00;;;;;;;;6489841;39;9509;-60
2022/12/09 23:44:31;;;;;;;;;53.00;43.00;;;;;;;;6488881;39;8960;-60
2022/12/09 23:50:33;;;;;;;;;65.75;52.75;;;;;;;;6489727;39;8917;-59
2022/12/09 23:56:42;;;;;;;;;59.25;48.00;;;;;;;;6489439;39;8877;-58
